Cedar Park, Texas
Current Conditions -  °F | °C
As of 4:35 AM on Saturday 22 Nov 2014 (Local Time) from KRYW Reporting Station
Overcast Overcast  
Wind Chill: 65°   Ceiling: 400
Heat Index: 65°   Visibility: 7mi
Dew Point: 63°   Wind: 10mph
Humidity: 94%   Direction: 130°SE
Pressure: 30.03"   Gusts: 20mph
Location:  30.51°N, 97.82°W
Report Text: KRYW 221035Z AUTO 13009G17KT 090V150 7SM OVC004 18/17 A3003 RMK AO2 LTG DSNT N T01820172
Loading
Personal Weather Stations






























Interactive Weather Map New forecast layout! Learn more

10-Day Weather Forecast

Advertisements
Track Severe Weather on mobile